sensor_id;sensor_type;location;lat;lon;timestamp;temperature;humidity
75010;DHT22;63564;46.840;18.336;2022-12-18T00:01:17;-1.68;87.48
75010;DHT22;63564;46.840;18.336;2022-12-18T00:04:21;-1.74;87.51
75010;DHT22;63564;46.840;18.336;2022-12-18T00:07:22;-1.71;87.30
75010;DHT22;63564;46.840;18.336;2022-12-18T00:10:22;-1.73;87.47
75010;DHT22;63564;46.840;18.336;2022-12-18T00:13:23;-1.74;87.87
75010;DHT22;63564;46.840;18.336;2022-12-18T00:16:24;-1.87;88.87
75010;DHT22;63564;46.840;18.336;2022-12-18T00:19:25;-2.01;88.92
75010;DHT22;63564;46.840;18.336;2022-12-18T00:22:25;-2.06;89.22
75010;DHT22;63564;46.840;18.336;2022-12-18T00:25:26;-2.15;89.66
75010;DHT22;63564;46.840;18.336;2022-12-18T00:28:26;-2.11;89.31
75010;DHT22;63564;46.840;18.336;2022-12-18T00:31:27;-2.05;88.15
75010;DHT22;63564;46.840;18.336;2022-12-18T00:34:27;-1.95;87.36
75010;DHT22;63564;46.840;18.336;2022-12-18T00:37:28;-1.90;86.49
75010;DHT22;63564;46.840;18.336;2022-12-18T00:40:28;-1.80;86.84
75010;DHT22;63564;46.840;18.336;2022-12-18T00:43:28;-1.78;86.65
75010;DHT22;63564;46.840;18.336;2022-12-18T00:46:29;-1.78;87.00
75010;DHT22;63564;46.840;18.336;2022-12-18T00:49:30;-1.77;86.88
75010;DHT22;63564;46.840;18.336;2022-12-18T00:52:30;-1.77;87.09
75010;DHT22;63564;46.840;18.336;2022-12-18T00:55:31;-1.78;87.09
75010;DHT22;63564;46.840;18.336;2022-12-18T00:58:31;-1.83;87.35
75010;DHT22;63564;46.840;18.336;2022-12-18T01:01:32;-1.84;87.50
75010;DHT22;63564;46.840;18.336;2022-12-18T01:04:33;-1.90;87.55
75010;DHT22;63564;46.840;18.336;2022-12-18T01:07:33;-1.92;87.43
75010;DHT22;63564;46.840;18.336;2022-12-18T01:10:33;-1.98;87.50
75010;DHT22;63564;46.840;18.336;2022-12-18T01:13:34;-2.01;87.27
75010;DHT22;63564;46.840;18.336;2022-12-18T01:16:35;-2.08;87.74
75010;DHT22;63564;46.840;18.336;2022-12-18T01:19:35;-2.15;87.96
75010;DHT22;63564;46.840;18.336;2022-12-18T01:22:36;-2.30;89.09
75010;DHT22;63564;46.840;18.336;2022-12-18T01:25:36;-2.43;89.86
75010;DHT22;63564;46.840;18.336;2022-12-18T01:28:37;-2.43;89.49
75010;DHT22;63564;46.840;18.336;2022-12-18T01:31:38;-2.40;89.12
75010;DHT22;63564;46.840;18.336;2022-12-18T01:34:38;-2.39;86.74
75010;DHT22;63564;46.840;18.336;2022-12-18T01:37:39;-2.36;87.07
75010;DHT22;63564;46.840;18.336;2022-12-18T01:40:39;-2.39;87.17
75010;DHT22;63564;46.840;18.336;2022-12-18T01:44:00;-2.57;91.02
75010;DHT22;63564;46.840;18.336;2022-12-18T01:47:00;-2.78;92.74
75010;DHT22;63564;46.840;18.336;2022-12-18T01:50:06;-2.74;91.75
75010;DHT22;63564;46.840;18.336;2022-12-18T01:56:14;-2.50;89.14
75010;DHT22;63564;46.840;18.336;2022-12-18T01:59:15;-2.45;88.51
75010;DHT22;63564;46.840;18.336;2022-12-18T02:02:16;-2.33;88.16
75010;DHT22;63564;46.840;18.336;2022-12-18T02:05:19;-2.40;87.66
75010;DHT22;63564;46.840;18.336;2022-12-18T02:08:28;-2.38;89.33
75010;DHT22;63564;46.840;18.336;2022-12-18T02:11:59;-2.36;89.14
75010;DHT22;63564;46.840;18.336;2022-12-18T02:18:14;-2.46;89.65
75010;DHT22;63564;46.840;18.336;2022-12-18T02:28:00;-2.40;87.73
75010;DHT22;63564;46.840;18.336;2022-12-18T02:31:02;-2.42;88.25
75010;DHT22;63564;46.840;18.336;2022-12-18T02:34:05;-2.39;88.24
75010;DHT22;63564;46.840;18.336;2022-12-18T02:37:11;-2.38;86.48
75010;DHT22;63564;46.840;18.336;2022-12-18T02:40:14;-2.43;88.69
75010;DHT22;63564;46.840;18.336;2022-12-18T02:43:15;-2.46;88.07
75010;DHT22;63564;46.840;18.336;2022-12-18T02:46:35;-2.46;88.21
75010;DHT22;63564;46.840;18.336;2022-12-18T02:59:15;-2.56;86.91
75010;DHT22;63564;46.840;18.336;2022-12-18T03:02:37;-2.60;88.12
75010;DHT22;63564;46.840;18.336;2022-12-18T03:05:44;-2.64;88.75
75010;DHT22;63564;46.840;18.336;2022-12-18T03:08:50;-2.66;88.39
75010;DHT22;63564;46.840;18.336;2022-12-18T03:11:56;-2.71;87.45
75010;DHT22;63564;46.840;18.336;2022-12-18T03:15:22;-2.78;87.52
75010;DHT22;63564;46.840;18.336;2022-12-18T03:18:36;-2.78;88.55
75010;DHT22;63564;46.840;18.336;2022-12-18T03:21:49;-2.78;88.90
75010;DHT22;63564;46.840;18.336;2022-12-18T03:24:51;-2.66;88.29
75010;DHT22;63564;46.840;18.336;2022-12-18T03:27:56;-2.64;87.98
75010;DHT22;63564;46.840;18.336;2022-12-18T03:31:00;-2.69;88.52
75010;DHT22;63564;46.840;18.336;2022-12-18T03:34:04;-2.67;88.45
75010;DHT22;63564;46.840;18.336;2022-12-18T03:37:06;-2.92;89.44
75010;DHT22;63564;46.840;18.336;2022-12-18T03:40:07;-3.22;91.20
75010;DHT22;63564;46.840;18.336;2022-12-18T03:43:25;-3.23;92.04
75010;DHT22;63564;46.840;18.336;2022-12-18T03:46:34;-2.94;89.95
75010;DHT22;63564;46.840;18.336;2022-12-18T03:50:02;-2.87;89.40
75010;DHT22;63564;46.840;18.336;2022-12-18T03:56:06;-2.92;88.93
75010;DHT22;63564;46.840;18.336;2022-12-18T03:59:08;-2.81;88.30
75010;DHT22;63564;46.840;18.336;2022-12-18T04:02:10;-2.73;87.74
75010;DHT22;63564;46.840;18.336;2022-12-18T04:05:11;-2.73;86.70
75010;DHT22;63564;46.840;18.336;2022-12-18T04:08:13;-2.77;87.61
75010;DHT22;63564;46.840;18.336;2022-12-18T04:11:15;-2.81;89.26
75010;DHT22;63564;46.840;18.336;2022-12-18T04:14:15;-2.89;89.67
75010;DHT22;63564;46.840;18.336;2022-12-18T04:17:15;-2.77;89.03
75010;DHT22;63564;46.840;18.336;2022-12-18T04:20:16;-2.80;88.78
75010;DHT22;63564;46.840;18.336;2022-12-18T04:23:17;-2.87;88.50
75010;DHT22;63564;46.840;18.336;2022-12-18T04:26:17;-2.94;88.98
75010;DHT22;63564;46.840;18.336;2022-12-18T04:29:18;-3.08;89.94
75010;DHT22;63564;46.840;18.336;2022-12-18T04:32:18;-3.04;90.01
75010;DHT22;63564;46.840;18.336;2022-12-18T04:35:19;-2.97;88.93
75010;DHT22;63564;46.840;18.336;2022-12-18T04:38:19;-3.13;90.19
75010;DHT22;63564;46.840;18.336;2022-12-18T04:41:19;-3.20;88.98
75010;DHT22;63564;46.840;18.336;2022-12-18T04:44:20;-3.18;90.14
75010;DHT22;63564;46.840;18.336;2022-12-18T04:47:20;-3.13;89.75
75010;DHT22;63564;46.840;18.336;2022-12-18T04:50:21;-3.15;89.43
75010;DHT22;63564;46.840;18.336;2022-12-18T04:53:21;-3.07;89.90
75010;DHT22;63564;46.840;18.336;2022-12-18T04:56:22;-3.32;91.21
75010;DHT22;63564;46.840;18.336;2022-12-18T04:59:22;-3.67;91.76
75010;DHT22;63564;46.840;18.336;2022-12-18T05:02:22;-3.71;92.44
75010;DHT22;63564;46.840;18.336;2022-12-18T05:05:23;-3.56;92.66
75010;DHT22;63564;46.840;18.336;2022-12-18T05:08:23;-3.53;92.15
75010;DHT22;63564;46.840;18.336;2022-12-18T05:11:24;-3.50;91.77
75010;DHT22;63564;46.840;18.336;2022-12-18T05:14:24;-3.45;90.96
75010;DHT22;63564;46.840;18.336;2022-12-18T05:17:24;-3.39;89.50
75010;DHT22;63564;46.840;18.336;2022-12-18T05:20:25;-3.31;89.79
75010;DHT22;63564;46.840;18.336;2022-12-18T05:23:26;-3.32;90.38
75010;DHT22;63564;46.840;18.336;2022-12-18T05:26:26;-3.29;90.15
75010;DHT22;63564;46.840;18.336;2022-12-18T05:29:27;-3.35;89.57
75010;DHT22;63564;46.840;18.336;2022-12-18T05:32:27;-3.29;89.92
75010;DHT22;63564;46.840;18.336;2022-12-18T05:35:28;-3.29;89.91
75010;DHT22;63564;46.840;18.336;2022-12-18T05:38:29;-3.23;88.87
75010;DHT22;63564;46.840;18.336;2022-12-18T05:41:30;-3.25;88.36
75010;DHT22;63564;46.840;18.336;2022-12-18T05:44:30;-3.29;90.94
75010;DHT22;63564;46.840;18.336;2022-12-18T05:47:31;-3.40;92.14
75010;DHT22;63564;46.840;18.336;2022-12-18T05:50:34;-3.32;90.99
75010;DHT22;63564;46.840;18.336;2022-12-18T05:53:35;-3.28;90.92
75010;DHT22;63564;46.840;18.336;2022-12-18T05:56:36;-3.56;90.21
75010;DHT22;63564;46.840;18.336;2022-12-18T05:59:36;-3.63;91.26
75010;DHT22;63564;46.840;18.336;2022-12-18T06:02:37;-3.63;93.08
75010;DHT22;63564;46.840;18.336;2022-12-18T06:05:45;-3.56;91.88
75010;DHT22;63564;46.840;18.336;2022-12-18T06:08:46;-3.84;90.21
75010;DHT22;63564;46.840;18.336;2022-12-18T06:11:46;-4.25;91.48
75010;DHT22;63564;46.840;18.336;2022-12-18T06:14:47;-4.22;93.33
75010;DHT22;63564;46.840;18.336;2022-12-18T06:17:47;-4.11;93.66
75010;DHT22;63564;46.840;18.336;2022-12-18T06:20:57;-3.97;93.05
75010;DHT22;63564;46.840;18.336;2022-12-18T06:23:58;-3.87;92.77
75010;DHT22;63564;46.840;18.336;2022-12-18T06:26:59;-3.70;92.46
75010;DHT22;63564;46.840;18.336;2022-12-18T06:30:00;-3.68;92.49
75010;DHT22;63564;46.840;18.336;2022-12-18T06:33:00;-3.71;92.75
75010;DHT22;63564;46.840;18.336;2022-12-18T06:36:04;-3.68;92.72
75010;DHT22;63564;46.840;18.336;2022-12-18T06:39:04;-3.95;93.63
75010;DHT22;63564;46.840;18.336;2022-12-18T06:42:05;-3.75;92.57
75010;DHT22;63564;46.840;18.336;2022-12-18T06:45:05;-3.59;91.83
75010;DHT22;63564;46.840;18.336;2022-12-18T06:48:06;-3.42;89.41
75010;DHT22;63564;46.840;18.336;2022-12-18T06:51:07;-3.34;88.27
75010;DHT22;63564;46.840;18.336;2022-12-18T06:54:07;-3.31;89.99
75010;DHT22;63564;46.840;18.336;2022-12-18T06:57:08;-3.35;89.79
75010;DHT22;63564;46.840;18.336;2022-12-18T07:00:08;-3.34;90.14
75010;DHT22;63564;46.840;18.336;2022-12-18T07:03:10;-3.19;89.63
75010;DHT22;63564;46.840;18.336;2022-12-18T07:06:15;-3.08;89.67
75010;DHT22;63564;46.840;18.336;2022-12-18T07:09:16;-3.04;89.37
75010;DHT22;63564;46.840;18.336;2022-12-18T07:12:16;-2.91;89.60
75010;DHT22;63564;46.840;18.336;2022-12-18T07:15:17;-2.88;88.98
75010;DHT22;63564;46.840;18.336;2022-12-18T07:18:17;-2.97;89.44
75010;DHT22;63564;46.840;18.336;2022-12-18T07:21:19;-2.99;90.23
75010;DHT22;63564;46.840;18.336;2022-12-18T07:24:19;-2.80;89.44
75010;DHT22;63564;46.840;18.336;2022-12-18T07:27:20;-2.85;90.77
75010;DHT22;63564;46.840;18.336;2022-12-18T07:30:20;-2.69;88.69
75010;DHT22;63564;46.840;18.336;2022-12-18T07:33:20;-2.61;88.45
75010;DHT22;63564;46.840;18.336;2022-12-18T07:36:22;-2.43;88.13
75010;DHT22;63564;46.840;18.336;2022-12-18T07:39:23;-2.33;87.97
75010;DHT22;63564;46.840;18.336;2022-12-18T07:42:23;-2.23;87.83
75010;DHT22;63564;46.840;18.336;2022-12-18T07:45:33;-2.12;87.43
75010;DHT22;63564;46.840;18.336;2022-12-18T07:48:33;-2.01;86.95
75010;DHT22;63564;46.840;18.336;2022-12-18T07:51:34;-1.90;86.80
75010;DHT22;63564;46.840;18.336;2022-12-18T07:54:34;-1.78;86.76
75010;DHT22;63564;46.840;18.336;2022-12-18T07:57:34;-1.67;87.53
75010;DHT22;63564;46.840;18.336;2022-12-18T08:00:35;-1.63;86.41
75010;DHT22;63564;46.840;18.336;2022-12-18T08:03:35;-1.49;86.07
75010;DHT22;63564;46.840;18.336;2022-12-18T08:06:36;-1.36;85.29
75010;DHT22;63564;46.840;18.336;2022-12-18T08:09:36;-1.29;85.30
75010;DHT22;63564;46.840;18.336;2022-12-18T08:12:37;-1.29;84.79
75010;DHT22;63564;46.840;18.336;2022-12-18T08:15:37;-1.18;84.35
75010;DHT22;63564;46.840;18.336;2022-12-18T08:18:38;-1.06;84.50
75010;DHT22;63564;46.840;18.336;2022-12-18T08:21:38;-0.99;84.27
75010;DHT22;63564;46.840;18.336;2022-12-18T08:24:38;-0.99;84.45
75010;DHT22;63564;46.840;18.336;2022-12-18T08:27:39;-0.94;82.95
75010;DHT22;63564;46.840;18.336;2022-12-18T08:30:39;-0.92;83.76
75010;DHT22;63564;46.840;18.336;2022-12-18T08:33:40;-0.88;83.31
75010;DHT22;63564;46.840;18.336;2022-12-18T08:36:40;-0.73;82.97
75010;DHT22;63564;46.840;18.336;2022-12-18T08:39:41;-0.78;83.08
75010;DHT22;63564;46.840;18.336;2022-12-18T08:42:41;-0.71;82.53
75010;DHT22;63564;46.840;18.336;2022-12-18T08:46:00;-0.61;82.19
75010;DHT22;63564;46.840;18.336;2022-12-18T08:49:00;-0.53;82.10
75010;DHT22;63564;46.840;18.336;2022-12-18T08:52:01;-0.53;82.14
75010;DHT22;63564;46.840;18.336;2022-12-18T08:55:03;-0.40;81.67
75010;DHT22;63564;46.840;18.336;2022-12-18T08:58:03;-0.30;82.09
75010;DHT22;63564;46.840;18.336;2022-12-18T09:01:06;-0.25;81.95
75010;DHT22;63564;46.840;18.336;2022-12-18T09:04:08;-0.16;81.76
75010;DHT22;63564;46.840;18.336;2022-12-18T09:07:08;-0.59;83.02
75010;DHT22;63564;46.840;18.336;2022-12-18T09:10:09;-0.19;82.58
75010;DHT22;63564;46.840;18.336;2022-12-18T09:13:13;0.05;81.00
75010;DHT22;63564;46.840;18.336;2022-12-18T09:16:14;0.10;80.30
75010;DHT22;63564;46.840;18.336;2022-12-18T09:19:14;0.09;80.44
75010;DHT22;63564;46.840;18.336;2022-12-18T09:22:15;0.15;80.77
75010;DHT22;63564;46.840;18.336;2022-12-18T09:25:15;0.32;80.87
75010;DHT22;63564;46.840;18.336;2022-12-18T09:28:17;0.54;80.51
75010;DHT22;63564;46.840;18.336;2022-12-18T09:31:20;1.30;78.02
75010;DHT22;63564;46.840;18.336;2022-12-18T09:34:21;1.98;74.90
75010;DHT22;63564;46.840;18.336;2022-12-18T09:37:21;2.08;73.81
75010;DHT22;63564;46.840;18.336;2022-12-18T09:40:25;2.43;72.32
75010;DHT22;63564;46.840;18.336;2022-12-18T09:43:37;2.93;69.74
75010;DHT22;63564;46.840;18.336;2022-12-18T09:46:45;3.12;69.76
75010;DHT22;63564;46.840;18.336;2022-12-18T09:49:49;2.95;70.91
75010;DHT22;63564;46.840;18.336;2022-12-18T09:52:53;2.15;74.45
75010;DHT22;63564;46.840;18.336;2022-12-18T09:55:55;2.63;71.24
75010;DHT22;63564;46.840;18.336;2022-12-18T09:59:00;2.52;71.71
75010;DHT22;63564;46.840;18.336;2022-12-18T10:02:19;2.83;69.68
75010;DHT22;63564;46.840;18.336;2022-12-18T10:05:43;2.58;72.55
75010;DHT22;63564;46.840;18.336;2022-12-18T10:08:54;3.15;70.09
75010;DHT22;63564;46.840;18.336;2022-12-18T10:15:32;2.05;73.83
75010;DHT22;63564;46.840;18.336;2022-12-18T10:18:53;2.54;72.03
75010;DHT22;63564;46.840;18.336;2022-12-18T10:22:21;1.67;75.81
75010;DHT22;63564;46.840;18.336;2022-12-18T10:25:26;1.77;76.99
75010;DHT22;63564;46.840;18.336;2022-12-18T10:28:30;2.12;75.05
75010;DHT22;63564;46.840;18.336;2022-12-18T10:31:31;2.37;72.84
75010;DHT22;63564;46.840;18.336;2022-12-18T10:34:31;2.73;71.97
75010;DHT22;63564;46.840;18.336;2022-12-18T10:37:32;2.19;73.67
75010;DHT22;63564;46.840;18.336;2022-12-18T10:40:34;2.73;72.81
75010;DHT22;63564;46.840;18.336;2022-12-18T10:43:47;2.79;70.90
75010;DHT22;63564;46.840;18.336;2022-12-18T10:46:53;2.57;72.92
75010;DHT22;63564;46.840;18.336;2022-12-18T10:49:56;3.19;70.35
75010;DHT22;63564;46.840;18.336;2022-12-18T10:53:01;2.36;73.09
75010;DHT22;63564;46.840;18.336;2022-12-18T10:56:04;2.40;74.12
75010;DHT22;63564;46.840;18.336;2022-12-18T10:59:08;2.91;71.75
75010;DHT22;63564;46.840;18.336;2022-12-18T11:02:33;3.15;71.01
75010;DHT22;63564;46.840;18.336;2022-12-18T11:05:35;3.02;72.69
75010;DHT22;63564;46.840;18.336;2022-12-18T11:08:37;2.90;73.46
75010;DHT22;63564;46.840;18.336;2022-12-18T11:11:38;3.18;73.04
75010;DHT22;63564;46.840;18.336;2022-12-18T11:17:41;3.04;72.34
75010;DHT22;63564;46.840;18.336;2022-12-18T11:20:42;3.31;73.19
75010;DHT22;63564;46.840;18.336;2022-12-18T11:23:53;3.64;70.49
75010;DHT22;63564;46.840;18.336;2022-12-18T11:26:54;3.11;71.00
75010;DHT22;63564;46.840;18.336;2022-12-18T11:30:09;3.69;72.14
75010;DHT22;63564;46.840;18.336;2022-12-18T11:33:18;3.87;69.72
75010;DHT22;63564;46.840;18.336;2022-12-18T11:36:20;4.41;68.36
75010;DHT22;63564;46.840;18.336;2022-12-18T11:42:35;2.91;72.29
75010;DHT22;63564;46.840;18.336;2022-12-18T11:46:07;2.58;73.16
75010;DHT22;63564;46.840;18.336;2022-12-18T11:49:18;2.84;73.37
75010;DHT22;63564;46.840;18.336;2022-12-18T11:52:33;2.95;70.00
75010;DHT22;63564;46.840;18.336;2022-12-18T11:55:43;2.42;71.21
75010;DHT22;63564;46.840;18.336;2022-12-18T11:58:55;2.36;72.63
75010;DHT22;63564;46.840;18.336;2022-12-18T12:05:43;2.02;74.55
75010;DHT22;63564;46.840;18.336;2022-12-18T12:09:05;2.37;74.29
75010;DHT22;63564;46.840;18.336;2022-12-18T12:15:29;2.70;72.30
75010;DHT22;63564;46.840;18.336;2022-12-18T12:22:37;2.52;71.87
75010;DHT22;63564;46.840;18.336;2022-12-18T12:25:33;2.33;72.25
75010;DHT22;63564;46.840;18.336;2022-12-18T12:28:57;2.33;74.18
75010;DHT22;63564;46.840;18.336;2022-12-18T12:35:25;2.42;75.11
75010;DHT22;63564;46.840;18.336;2022-12-18T12:38:35;2.35;74.26
75010;DHT22;63564;46.840;18.336;2022-12-18T12:41:38;2.35;74.80
75010;DHT22;63564;46.840;18.336;2022-12-18T12:44:58;2.70;71.00
75010;DHT22;63564;46.840;18.336;2022-12-18T12:48:02;2.50;72.90
75010;DHT22;63564;46.840;18.336;2022-12-18T12:51:11;2.93;71.95
75010;DHT22;63564;46.840;18.336;2022-12-18T12:54:19;3.26;67.91
75010;DHT22;63564;46.840;18.336;2022-12-18T12:57:34;3.01;70.20
75010;DHT22;63564;46.840;18.336;2022-12-18T13:00:49;3.62;67.89
75010;DHT22;63564;46.840;18.336;2022-12-18T13:13:24;3.55;68.40
75010;DHT22;63564;46.840;18.336;2022-12-18T13:16:26;3.78;68.36
75010;DHT22;63564;46.840;18.336;2022-12-18T13:19:27;3.15;69.51
75010;DHT22;63564;46.840;18.336;2022-12-18T13:22:37;3.23;69.02
75010;DHT22;63564;46.840;18.336;2022-12-18T13:25:39;3.33;69.62
75010;DHT22;63564;46.840;18.336;2022-12-18T13:34:46;3.33;69.30
75010;DHT22;63564;46.840;18.336;2022-12-18T13:37:54;3.32;69.62
75010;DHT22;63564;46.840;18.336;2022-12-18T13:40:56;3.60;68.95
75010;DHT22;63564;46.840;18.336;2022-12-18T13:44:11;3.46;69.08
75010;DHT22;63564;46.840;18.336;2022-12-18T13:50:25;4.57;66.07
75010;DHT22;63564;46.840;18.336;2022-12-18T13:53:29;4.55;66.20
75010;DHT22;63564;46.840;18.336;2022-12-18T13:56:32;4.09;67.61
75010;DHT22;63564;46.840;18.336;2022-12-18T13:59:37;3.90;68.58
75010;DHT22;63564;46.840;18.336;2022-12-18T14:02:38;3.55;68.92
75010;DHT22;63564;46.840;18.336;2022-12-18T14:05:44;3.52;69.66
75010;DHT22;63564;46.840;18.336;2022-12-18T14:08:46;3.26;70.62
75010;DHT22;63564;46.840;18.336;2022-12-18T14:11:48;3.19;70.15
75010;DHT22;63564;46.840;18.336;2022-12-18T14:14:51;2.47;73.47
75010;DHT22;63564;46.840;18.336;2022-12-18T14:17:53;1.99;75.74
75010;DHT22;63564;46.840;18.336;2022-12-18T14:20:57;1.68;76.98
75010;DHT22;63564;46.840;18.336;2022-12-18T14:27:22;1.15;79.13
75010;DHT22;63564;46.840;18.336;2022-12-18T14:33:26;0.99;79.31
75010;DHT22;63564;46.840;18.336;2022-12-18T14:36:28;0.74;80.67
75010;DHT22;63564;46.840;18.336;2022-12-18T14:39:28;0.53;82.02
75010;DHT22;63564;46.840;18.336;2022-12-18T14:42:29;0.44;82.15
75010;DHT22;63564;46.840;18.336;2022-12-18T14:45:38;0.29;82.40
75010;DHT22;63564;46.840;18.336;2022-12-18T14:48:42;0.25;83.04
75010;DHT22;63564;46.840;18.336;2022-12-18T14:51:56;0.18;84.18
75010;DHT22;63564;46.840;18.336;2022-12-18T14:54:58;0.05;83.97
75010;DHT22;63564;46.840;18.336;2022-12-18T14:57:58;-0.06;84.01
75010;DHT22;63564;46.840;18.336;2022-12-18T15:00:59;-0.21;83.88
75010;DHT22;63564;46.840;18.336;2022-12-18T15:04:01;-0.32;84.47
75010;DHT22;63564;46.840;18.336;2022-12-18T15:07:04;-0.30;84.91
75010;DHT22;63564;46.840;18.336;2022-12-18T15:13:22;-0.53;86.08
75010;DHT22;63564;46.840;18.336;2022-12-18T15:16:23;-0.61;86.28
75010;DHT22;63564;46.840;18.336;2022-12-18T15:19:40;-0.68;87.31
75010;DHT22;63564;46.840;18.336;2022-12-18T15:22:41;-0.60;87.66
75010;DHT22;63564;46.840;18.336;2022-12-18T15:25:42;-0.73;87.71
75010;DHT22;63564;46.840;18.336;2022-12-18T15:28:56;-0.78;88.21
75010;DHT22;63564;46.840;18.336;2022-12-18T15:35:14;-0.71;87.24
75010;DHT22;63564;46.840;18.336;2022-12-18T15:38:15;-0.66;87.35
75010;DHT22;63564;46.840;18.336;2022-12-18T15:41:18;-0.68;86.78
75010;DHT22;63564;46.840;18.336;2022-12-18T15:44:23;-0.71;86.80
75010;DHT22;63564;46.840;18.336;2022-12-18T15:47:25;-0.81;87.40
75010;DHT22;63564;46.840;18.336;2022-12-18T15:50:26;-0.78;87.32
75010;DHT22;63564;46.840;18.336;2022-12-18T15:53:30;-0.84;87.90
75010;DHT22;63564;46.840;18.336;2022-12-18T15:56:32;-0.91;88.08
75010;DHT22;63564;46.840;18.336;2022-12-18T15:59:53;-1.08;88.29
75010;DHT22;63564;46.840;18.336;2022-12-18T16:02:54;-1.05;88.90
75010;DHT22;63564;46.840;18.336;2022-12-18T16:05:55;-0.98;88.64
75010;DHT22;63564;46.840;18.336;2022-12-18T16:08:56;-0.98;88.69
75010;DHT22;63564;46.840;18.336;2022-12-18T16:11:59;-0.95;88.84
75010;DHT22;63564;46.840;18.336;2022-12-18T16:15:00;-0.98;88.63
75010;DHT22;63564;46.840;18.336;2022-12-18T16:18:01;-1.11;89.07
75010;DHT22;63564;46.840;18.336;2022-12-18T16:21:01;-1.12;89.04
75010;DHT22;63564;46.840;18.336;2022-12-18T16:24:05;-1.16;89.00
75010;DHT22;63564;46.840;18.336;2022-12-18T16:27:11;-1.11;89.08
75010;DHT22;63564;46.840;18.336;2022-12-18T16:30:15;-1.35;89.39
75010;DHT22;63564;46.840;18.336;2022-12-18T16:33:16;-1.50;90.34
75010;DHT22;63564;46.840;18.336;2022-12-18T16:36:17;-1.63;90.87
75010;DHT22;63564;46.840;18.336;2022-12-18T16:39:18;-1.63;91.24
75010;DHT22;63564;46.840;18.336;2022-12-18T16:42:19;-1.64;91.98
75010;DHT22;63564;46.840;18.336;2022-12-18T16:45:22;-1.57;92.23
75010;DHT22;63564;46.840;18.336;2022-12-18T16:48:23;-1.60;91.45
75010;DHT22;63564;46.840;18.336;2022-12-18T16:51:24;-1.68;91.70
75010;DHT22;63564;46.840;18.336;2022-12-18T16:54:25;-1.68;92.05
75010;DHT22;63564;46.840;18.336;2022-12-18T16:57:29;-1.70;92.21
75010;DHT22;63564;46.840;18.336;2022-12-18T17:00:30;-1.67;92.42
75010;DHT22;63564;46.840;18.336;2022-12-18T17:03:31;-1.75;92.50
75010;DHT22;63564;46.840;18.336;2022-12-18T17:06:34;-1.85;92.51
75010;DHT22;63564;46.840;18.336;2022-12-18T17:09:35;-1.75;93.04
75010;DHT22;63564;46.840;18.336;2022-12-18T17:12:37;-1.83;93.26
75010;DHT22;63564;46.840;18.336;2022-12-18T17:15:38;-1.81;93.37
75010;DHT22;63564;46.840;18.336;2022-12-18T17:18:43;-1.84;93.44
75010;DHT22;63564;46.840;18.336;2022-12-18T17:21:47;-1.83;92.90
75010;DHT22;63564;46.840;18.336;2022-12-18T17:24:48;-1.87;93.18
75010;DHT22;63564;46.840;18.336;2022-12-18T17:27:50;-1.87;92.62
75010;DHT22;63564;46.840;18.336;2022-12-18T17:30:52;-1.90;92.88
75010;DHT22;63564;46.840;18.336;2022-12-18T17:33:53;-1.94;92.52
75010;DHT22;63564;46.840;18.336;2022-12-18T17:36:54;-1.92;92.07
75010;DHT22;63564;46.840;18.336;2022-12-18T17:39:55;-1.99;92.05
75010;DHT22;63564;46.840;18.336;2022-12-18T17:42:57;-2.05;91.98
75010;DHT22;63564;46.840;18.336;2022-12-18T17:46:05;-2.05;92.39
75010;DHT22;63564;46.840;18.336;2022-12-18T17:49:06;-2.06;92.41
75010;DHT22;63564;46.840;18.336;2022-12-18T17:52:07;-2.09;92.19
75010;DHT22;63564;46.840;18.336;2022-12-18T17:55:08;-2.15;92.49
75010;DHT22;63564;46.840;18.336;2022-12-18T17:58:09;-2.11;92.44
75010;DHT22;63564;46.840;18.336;2022-12-18T18:01:14;-1.95;92.39
75010;DHT22;63564;46.840;18.336;2022-12-18T18:04:16;-1.92;92.38
75010;DHT22;63564;46.840;18.336;2022-12-18T18:07:17;-1.92;91.76
75010;DHT22;63564;46.840;18.336;2022-12-18T18:10:17;-1.97;91.69
75010;DHT22;63564;46.840;18.336;2022-12-18T18:13:22;-1.98;92.76
75010;DHT22;63564;46.840;18.336;2022-12-18T18:16:44;-1.99;92.71
75010;DHT22;63564;46.840;18.336;2022-12-18T18:19:45;-1.97;92.45
75010;DHT22;63564;46.840;18.336;2022-12-18T18:22:46;-1.90;91.55
75010;DHT22;63564;46.840;18.336;2022-12-18T18:25:47;-1.80;91.59
75010;DHT22;63564;46.840;18.336;2022-12-18T18:28:47;-1.84;90.91
75010;DHT22;63564;46.840;18.336;2022-12-18T18:31:48;-1.85;90.93
75010;DHT22;63564;46.840;18.336;2022-12-18T18:34:50;-1.78;91.08
75010;DHT22;63564;46.840;18.336;2022-12-18T18:37:51;-1.77;90.41
75010;DHT22;63564;46.840;18.336;2022-12-18T18:41:03;-1.66;89.49
75010;DHT22;63564;46.840;18.336;2022-12-18T18:44:04;-1.71;89.66
75010;DHT22;63564;46.840;18.336;2022-12-18T18:47:05;-1.63;88.71
75010;DHT22;63564;46.840;18.336;2022-12-18T18:50:06;-2.01;90.93
75010;DHT22;63564;46.840;18.336;2022-12-18T18:53:07;-2.11;91.11
75010;DHT22;63564;46.840;18.336;2022-12-18T18:56:09;-2.35;92.66
75010;DHT22;63564;46.840;18.336;2022-12-18T18:59:12;-2.26;92.32
75010;DHT22;63564;46.840;18.336;2022-12-18T19:02:14;-2.32;92.13
75010;DHT22;63564;46.840;18.336;2022-12-18T19:05:15;-2.05;92.19
75010;DHT22;63564;46.840;18.336;2022-12-18T19:08:16;-1.94;91.44
75010;DHT22;63564;46.840;18.336;2022-12-18T19:11:17;-1.95;91.40
75010;DHT22;63564;46.840;18.336;2022-12-18T19:14:37;-1.87;91.20
75010;DHT22;63564;46.840;18.336;2022-12-18T19:17:38;-1.84;90.50
75010;DHT22;63564;46.840;18.336;2022-12-18T19:20:40;-1.85;90.56
75010;DHT22;63564;46.840;18.336;2022-12-18T19:23:41;-1.84;90.49
75010;DHT22;63564;46.840;18.336;2022-12-18T19:26:42;-1.84;90.44
75010;DHT22;63564;46.840;18.336;2022-12-18T19:29:43;-1.84;90.22
75010;DHT22;63564;46.840;18.336;2022-12-18T19:32:43;-1.81;90.00
75010;DHT22;63564;46.840;18.336;2022-12-18T19:35:44;-1.73;89.25
75010;DHT22;63564;46.840;18.336;2022-12-18T19:38:48;-1.70;89.94
75010;DHT22;63564;46.840;18.336;2022-12-18T19:41:48;-1.68;89.85
75010;DHT22;63564;46.840;18.336;2022-12-18T19:44:49;-1.81;89.89
75010;DHT22;63564;46.840;18.336;2022-12-18T19:47:50;-1.81;91.05
75010;DHT22;63564;46.840;18.336;2022-12-18T19:50:51;-1.90;91.07
75010;DHT22;63564;46.840;18.336;2022-12-18T19:53:53;-1.83;90.81
75010;DHT22;63564;46.840;18.336;2022-12-18T19:56:54;-1.97;91.07
75010;DHT22;63564;46.840;18.336;2022-12-18T19:59:56;-1.99;91.61
75010;DHT22;63564;46.840;18.336;2022-12-18T20:02:57;-1.94;91.08
75010;DHT22;63564;46.840;18.336;2022-12-18T20:09:11;-1.83;91.67
75010;DHT22;63564;46.840;18.336;2022-12-18T20:12:12;-1.87;90.85
75010;DHT22;63564;46.840;18.336;2022-12-18T20:15:13;-1.90;91.33
75010;DHT22;63564;46.840;18.336;2022-12-18T20:18:14;-1.83;91.39
75010;DHT22;63564;46.840;18.336;2022-12-18T20:21:15;-1.90;91.40
75010;DHT22;63564;46.840;18.336;2022-12-18T20:24:16;-1.85;91.85
75010;DHT22;63564;46.840;18.336;2022-12-18T20:27:17;-2.01;90.06
75010;DHT22;63564;46.840;18.336;2022-12-18T20:30:19;-1.84;91.03